Time,TemperatureF,DewpointF,PressureIn,WindDirection,WindDirectionDegrees,WindSpeedMPH,WindSpeedGustMPH,Humidity,HourlyPrecipIn,Conditions,Clouds,dailyrainin,SoftwareType,DateUTC
2013-05-24 00:01:00,78.2,71.9,29.94,ENE,57,0.0,1.2,81,0.00,CLR,,0.00,WeatherDisplay:10.37,2013-05-24 05:01:00,
2013-05-24 00:06:00,78.2,71.9,29.95,ENE,71,0.0,0.0,81,0.00,CLR,,0.00,WeatherDisplay:10.37,2013-05-24 05:06:00,
2013-05-24 00:11:00,78.1,71.8,29.95,ENE,71,0.0,0.0,81,0.00,CLR,,0.00,WeatherDisplay:10.37,2013-05-24 05:11:00,
2013-05-24 00:16:00,78.0,71.7,29.95,ENE,71,0.1,1.2,81,0.00,CLR,,0.00,WeatherDisplay:10.37,2013-05-24 05:16:00,
2013-05-24 00:21:00,78.0,71.7,29.95,ENE,71,0.2,1.2,81,0.00,CLR,,0.00,WeatherDisplay:10.37,2013-05-24 05:21:00,
2013-05-24 00:26:00,77.9,71.6,29.94,North,5,0.0,0.0,81,0.00,CLR,,0.00,WeatherDisplay:10.37,2013-05-24 05:26:00,
2013-05-24 00:31:00,77.8,71.5,29.94,North,5,0.0,0.0,81,0.00,CLR,,0.00,WeatherDisplay:10.37,2013-05-24 05:31:00,
2013-05-24 00:36:00,77.8,71.5,29.94,North,5,0.0,0.0,81,0.00,CLR,,0.00,WeatherDisplay:10.37,2013-05-24 05:36:00,
2013-05-24 00:41:00,77.6,71.3,29.94,ENE,61,0.2,2.0,81,0.00,CLR,,0.00,WeatherDisplay:10.37,2013-05-24 05:41:00,
2013-05-24 00:46:00,77.5,71.2,29.94,East,85,0.0,0.0,81,0.00,CLR,,0.00,WeatherDisplay:10.37,2013-05-24 05:46:00,
2013-05-24 00:51:00,77.5,71.6,29.94,East,85,0.1,1.2,82,0.00,CLR,,0.00,WeatherDisplay:10.37,2013-05-24 05:51:00,
2013-05-24 00:56:00,77.3,71.4,29.94,NE,53,0.2,2.3,82,0.00,CLR,,0.00,WeatherDisplay:10.37,2013-05-24 05:56:00,
2013-05-24 01:01:00,77.3,71.4,29.94,NE,42,0.1,1.2,82,0.00,CLR,,0.00,WeatherDisplay:10.37,2013-05-24 06:01:00,
2013-05-24 01:06:00,77.2,71.3,29.94,NE,42,0.0,0.0,82,0.00,CLR,,0.00,WeatherDisplay:10.37,2013-05-24 06:06:00,
2013-05-24 01:11:00,77.2,71.6,29.95,East,82,0.8,0.0,83,0.00,CLR,,0.00,WeatherDisplay:10.37,2013-05-24 06:11:00,
2013-05-24 01:16:00,77.1,71.5,29.94,NE,46,0.0,2.0,83,0.00,CLR,,0.00,WeatherDisplay:10.37,2013-05-24 06:16:00,
2013-05-24 01:21:00,77.0,71.4,29.94,ENE,65,0.5,3.5,83,0.00,CLR,,0.00,WeatherDisplay:10.37,2013-05-24 06:21:00,
2013-05-24 01:26:00,77.0,71.8,29.95,NE,51,0.0,0.0,84,0.00,CLR,,0.00,WeatherDisplay:10.37,2013-05-24 06:26:00,
2013-05-24 01:31:00,76.9,71.7,29.95,ENE,63,0.0,1.0,84,0.00,CLR,,0.00,WeatherDisplay:10.37,2013-05-24 06:31:00,
2013-05-24 01:36:00,76.8,71.6,29.95,East,96,0.2,2.0,84,0.00,CLR,,0.00,WeatherDisplay:10.37,2013-05-24 06:36:00,
2013-05-24 01:41:00,76.7,71.5,29.95,ENE,72,0.1,1.2,84,0.00,CLR,,0.00,WeatherDisplay:10.37,2013-05-24 06:41:00,
2013-05-24 01:46:00,76.6,71.4,29.95,East,85,0.0,0.0,84,0.00,CLR,,0.00,WeatherDisplay:10.37,2013-05-24 06:46:00,
2013-05-24 01:51:00,76.5,71.7,29.94,East,80,0.0,3.5,85,0.00,CLR,,0.00,WeatherDisplay:10.37,2013-05-24 06:51:00,
2013-05-24 01:56:00,76.4,71.6,29.94,East,80,0.0,0.0,85,0.00,CLR,,0.00,WeatherDisplay:10.37,2013-05-24 06:56:00,
2013-05-24 02:01:00,76.3,71.5,29.95,ENE,76,0.0,0.0,85,0.00,CLR,,0.00,WeatherDisplay:10.37,2013-05-24 07:01:00,
2013-05-24 02:06:00,76.2,71.4,29.95,NE,35,0.0,0.0,85,0.00,CLR,,0.00,WeatherDisplay:10.37,2013-05-24 07:06:00,
2013-05-24 02:11:00,76.1,71.3,29.95,ENE,59,0.2,2.0,85,0.00,CLR,,0.00,WeatherDisplay:10.37,2013-05-24 07:11:00,
2013-05-24 02:16:00,75.9,71.4,29.96,NE,52,1.4,3.5,86,0.00,CLR,,0.00,WeatherDisplay:10.37,2013-05-24 07:16:00,
2013-05-24 02:21:00,75.8,71.3,29.96,ENE,74,0.0,0.0,86,0.00,CLR,,0.00,WeatherDisplay:10.37,2013-05-24 07:21:00,
2013-05-24 02:26:00,75.7,71.2,29.95,NE,56,0.0,0.0,86,0.00,CLR,,0.00,WeatherDisplay:10.37,2013-05-24 07:26:00,
2013-05-24 02:31:00,75.6,71.5,29.95,ENE,72,0.0,0.0,87,0.00,CLR,,0.00,WeatherDisplay:10.37,2013-05-24 07:31:00,
2013-05-24 02:36:00,75.5,71.4,29.95,ENE,72,0.0,0.0,87,0.00,CLR,,0.00,WeatherDisplay:10.37,2013-05-24 07:36:00,
2013-05-24 02:41:00,75.4,71.3,29.95,ENE,71,0.0,0.0,87,0.00,CLR,,0.00,WeatherDisplay:10.37,2013-05-24 07:41:00,
2013-05-24 02:46:00,75.3,71.2,29.95,ESE,108,0.1,1.0,87,0.00,CLR,,0.00,WeatherDisplay:10.37,2013-05-24 07:46:00,
2013-05-24 02:51:00,75.2,71.1,29.95,East,82,0.6,4.6,87,0.00,CLR,,0.00,WeatherDisplay:10.37,2013-05-24 07:51:00,
2013-05-24 02:56:00,75.1,71.3,29.94,ESE,116,0.1,1.2,88,0.00,CLR,,0.00,WeatherDisplay:10.37,2013-05-24 07:56:00,
2013-05-24 03:01:00,75.0,71.2,29.94,NE,44,0.1,1.2,88,0.00,CLR,,0.00,WeatherDisplay:10.37,2013-05-24 08:01:00,
2013-05-24 03:06:00,74.9,71.1,29.95,NE,44,0.1,1.0,88,0.00,CLR,,0.00,WeatherDisplay:10.37,2013-05-24 08:06:00,
2013-05-24 03:11:00,74.9,71.1,29.96,NE,48,0.0,0.0,88,0.00,CLR,,0.00,WeatherDisplay:10.37,2013-05-24 08:11:00,
2013-05-24 03:16:00,74.8,71.0,29.96,NE,48,0.0,0.0,88,0.00,CLR,,0.00,WeatherDisplay:10.37,2013-05-24 08:16:00,
2013-05-24 03:21:00,74.7,70.9,29.96,NE,48,0.0,0.0,88,0.00,CLR,,0.00,WeatherDisplay:10.37,2013-05-24 08:21:00,
2013-05-24 03:26:00,74.6,71.1,29.95,NE,48,0.0,1.2,89,0.00,CLR,,0.00,WeatherDisplay:10.37,2013-05-24 08:26:00,
2013-05-24 03:31:00,74.6,71.1,29.95,NE,48,0.0,0.0,89,0.00,CLR,,0.00,WeatherDisplay:10.37,2013-05-24 08:31:00,
2013-05-24 03:36:00,74.5,71.0,29.95,NE,48,0.0,0.0,89,0.00,CLR,,0.00,WeatherDisplay:10.37,2013-05-24 08:36:00,
2013-05-24 03:41:00,74.4,70.9,29.95,NE,48,0.0,0.0,89,0.00,CLR,,0.00,WeatherDisplay:10.37,2013-05-24 08:41:00,
2013-05-24 03:46:00,74.4,70.9,29.95,NE,48,0.0,0.0,89,0.00,CLR,,0.00,WeatherDisplay:10.37,2013-05-24 08:46:00,
2013-05-24 03:51:00,74.3,70.8,29.95,NE,48,0.0,0.0,89,0.00,CLR,,0.00,WeatherDisplay:10.37,2013-05-24 08:51:00,
2013-05-24 03:56:00,74.2,70.7,29.94,NE,48,0.0,0.0,89,0.00,CLR,,0.00,WeatherDisplay:10.37,2013-05-24 08:56:00,
2013-05-24 04:01:00,74.2,70.7,29.94,NE,48,0.0,0.0,89,0.00,CLR,,0.00,WeatherDisplay:10.37,2013-05-24 09:01:00,
2013-05-24 04:06:00,74.1,71.0,29.93,NE,47,0.0,0.0,90,0.00,CLR,,0.00,WeatherDisplay:10.37,2013-05-24 09:06:00,
2013-05-24 04:11:00,74.0,70.6,29.93,NE,48,0.0,0.0,89,0.00,CLR,,0.00,WeatherDisplay:10.37,2013-05-24 09:11:00,
2013-05-24 04:16:00,74.0,70.9,29.93,NE,48,0.0,0.0,90,0.00,CLR,,0.00,WeatherDisplay:10.37,2013-05-24 09:16:00,
2013-05-24 04:21:00,73.9,70.8,29.93,NE,48,0.0,0.0,90,0.00,CLR,,0.00,WeatherDisplay:10.37,2013-05-24 09:21:00,
2013-05-24 04:26:00,73.8,70.7,29.94,NE,48,0.0,0.0,90,0.00,CLR,,0.00,WeatherDisplay:10.37,2013-05-24 09:26:00,
2013-05-24 04:31:00,73.8,70.7,29.94,NE,48,0.0,0.0,90,0.00,CLR,,0.00,WeatherDisplay:10.37,2013-05-24 09:31:00,
2013-05-24 04:36:00,73.8,70.7,29.94,NE,48,0.0,0.0,90,0.00,CLR,,0.00,WeatherDisplay:10.37,2013-05-24 09:36:00,
2013-05-24 04:41:00,73.8,70.7,29.94,NE,48,0.0,0.0,90,0.00,CLR,,0.00,WeatherDisplay:10.37,2013-05-24 09:41:00,
2013-05-24 04:46:00,73.7,70.9,29.94,NE,48,0.0,0.0,91,0.00,CLR,,0.00,WeatherDisplay:10.37,2013-05-24 09:46:00,
2013-05-24 04:51:00,73.7,70.9,29.93,NE,48,0.0,0.0,91,0.00,CLR,,0.00,WeatherDisplay:10.37,2013-05-24 09:51:00,
2013-05-24 04:56:00,73.7,70.9,29.93,NE,48,0.0,0.0,91,0.00,CLR,,0.00,WeatherDisplay:10.37,2013-05-24 09:56:00,
2013-05-24 05:01:00,73.7,70.9,29.93,NE,48,0.0,0.0,91,0.00,CLR,,0.00,WeatherDisplay:10.37,2013-05-24 10:01:00,
2013-05-24 05:06:00,73.7,70.9,29.93,NE,48,0.0,0.0,91,0.00,CLR,,0.00,WeatherDisplay:10.37,2013-05-24 10:06:00,
2013-05-24 05:11:00,73.7,70.9,29.93,NE,48,0.0,0.0,91,0.00,CLR,,0.00,WeatherDisplay:10.37,2013-05-24 10:11:00,
2013-05-24 05:16:00,73.7,70.9,29.93,NE,48,0.0,0.0,91,0.00,CLR,,0.00,WeatherDisplay:10.37,2013-05-24 10:16:00,
2013-05-24 05:21:00,73.7,70.9,29.94,NE,48,0.0,0.0,91,0.00,CLR,,0.00,WeatherDisplay:10.37,2013-05-24 10:21:00,
2013-05-24 05:26:00,73.7,70.9,29.94,NE,48,0.0,1.2,91,0.00,CLR,,0.00,WeatherDisplay:10.37,2013-05-24 10:26:00,
2013-05-24 05:31:00,73.7,70.9,29.94,NE,48,0.0,0.0,91,0.00,CLR,,0.00,WeatherDisplay:10.37,2013-05-24 10:31:00,
2013-05-24 05:36:00,73.7,70.9,29.93,NE,47,0.0,0.0,91,0.00,CLR,,0.00,WeatherDisplay:10.37,2013-05-24 10:36:00,
2013-05-24 05:41:00,73.7,70.9,29.94,NE,48,0.0,0.0,91,0.00,CLR,,0.00,WeatherDisplay:10.37,2013-05-24 10:41:00,
2013-05-24 05:46:00,73.8,71.0,29.94,NE,48,0.0,0.0,91,0.00,CLR,,0.00,WeatherDisplay:10.37,2013-05-24 10:46:00,
2013-05-24 05:51:00,73.8,71.0,29.95,NE,48,0.0,0.0,91,0.00,CLR,,0.00,WeatherDisplay:10.37,2013-05-24 10:51:00,
2013-05-24 05:56:00,73.8,71.0,29.95,NE,48,0.0,0.0,91,0.00,CLR,,0.00,WeatherDisplay:10.37,2013-05-24 10:56:00,
2013-05-24 06:01:00,73.8,71.0,29.95,NE,48,0.0,0.0,91,0.00,CLR,,0.00,WeatherDisplay:10.37,2013-05-24 11:01:00,
2013-05-24 06:06:00,73.7,70.9,29.96,NE,47,0.0,0.0,91,0.00,CLR,,0.00,WeatherDisplay:10.37,2013-05-24 11:06:00,
2013-05-24 06:11:00,73.8,71.0,29.96,NE,48,0.0,0.0,91,0.00,CLR,,0.00,WeatherDisplay:10.37,2013-05-24 11:11:00,
2013-05-24 06:16:00,73.8,71.0,29.96,NE,48,0.0,0.0,91,0.00,CLR,,0.00,WeatherDisplay:10.37,2013-05-24 11:16:00,
2013-05-24 06:21:00,73.8,71.0,29.96,NE,48,0.0,0.0,91,0.00,CLR,,0.00,WeatherDisplay:10.37,2013-05-24 11:21:00,
2013-05-24 06:26:00,73.8,71.0,29.96,NE,48,0.0,0.0,91,0.00,CLR,,0.00,WeatherDisplay:10.37,2013-05-24 11:26:00,
2013-05-24 06:31:00,73.8,71.0,29.96,NE,48,0.0,0.0,91,0.00,CLR,,0.00,WeatherDisplay:10.37,2013-05-24 11:31:00,
2013-05-24 06:36:00,73.8,71.0,29.95,NE,48,0.0,0.0,91,0.00,CLR,,0.00,WeatherDisplay:10.37,2013-05-24 11:36:00,
2013-05-24 06:41:00,73.9,71.1,29.95,NE,48,0.0,0.0,91,0.00,CLR,,0.00,WeatherDisplay:10.37,2013-05-24 11:41:00,
2013-05-24 06:46:00,73.9,71.1,29.95,NE,48,0.0,0.0,91,0.00,CLR,,0.00,WeatherDisplay:10.37,2013-05-24 11:46:00,
2013-05-24 06:51:00,73.8,71.0,29.94,NE,48,0.0,0.0,91,0.00,CLR,,0.00,WeatherDisplay:10.37,2013-05-24 11:51:00,
2013-05-24 06:56:00,73.8,71.0,29.94,NE,48,0.0,0.0,91,0.00,CLR,,0.00,WeatherDisplay:10.37,2013-05-24 11:56:00,
2013-05-24 07:01:00,73.8,71.0,29.94,NE,48,0.0,0.0,91,0.00,CLR,,0.00,WeatherDisplay:10.37,2013-05-24 12:01:00,
2013-05-24 07:06:00,73.8,71.0,29.94,NE,48,0.0,0.0,91,0.00,CLR,,0.00,WeatherDisplay:10.37,2013-05-24 12:06:00,
2013-05-24 07:11:00,73.8,71.0,29.95,NE,48,0.0,0.0,91,0.00,CLR,,0.00,WeatherDisplay:10.37,2013-05-24 12:11:00,
2013-05-24 07:16:00,73.8,71.3,29.95,NE,48,0.0,0.0,92,0.00,CLR,,0.00,WeatherDisplay:10.37,2013-05-24 12:16:00,
2013-05-24 07:21:00,73.8,71.3,29.95,NE,48,0.0,0.0,92,0.00,CLR,,0.00,WeatherDisplay:10.37,2013-05-24 12:21:00,
2013-05-24 07:26:00,73.8,71.3,29.95,NE,48,0.0,0.0,92,0.00,CLR,,0.00,WeatherDisplay:10.37,2013-05-24 12:26:00,
2013-05-24 07:31:00,73.9,71.4,29.95,NE,48,0.0,0.0,92,0.00,CLR,,0.00,WeatherDisplay:10.37,2013-05-24 12:31:00,
2013-05-24 07:36:00,73.9,71.4,29.96,NE,48,0.0,0.0,92,0.00,CLR,,0.00,WeatherDisplay:10.37,2013-05-24 12:36:00,
2013-05-24 07:41:00,73.9,71.4,29.96,NE,47,0.0,0.0,92,0.00,CLR,,0.00,WeatherDisplay:10.37,2013-05-24 12:41:00,
2013-05-24 07:46:00,74.0,71.5,29.96,NE,51,0.0,1.2,92,0.00,CLR,,0.00,WeatherDisplay:10.37,2013-05-24 12:46:00,
2013-05-24 07:51:00,74.1,71.6,29.97,NE,53,0.0,0.0,92,0.00,CLR,,0.00,WeatherDisplay:10.37,2013-05-24 12:51:00,
2013-05-24 07:56:00,74.2,71.7,29.97,NE,53,0.0,0.0,92,0.00,CLR,,0.00,WeatherDisplay:10.37,2013-05-24 12:56:00,
2013-05-24 08:01:00,74.2,71.7,29.97,NE,53,0.1,1.2,92,0.00,CLR,,0.00,WeatherDisplay:10.37,2013-05-24 13:01:00,
2013-05-24 08:06:00,74.3,71.8,29.97,NE,53,0.1,1.2,92,0.00,CLR,,0.00,WeatherDisplay:10.37,2013-05-24 13:06:00,
2013-05-24 08:11:00,74.4,71.9,29.98,NE,53,0.0,0.0,92,0.00,CLR,,0.00,WeatherDisplay:10.37,2013-05-24 13:11:00,
2013-05-24 08:16:00,74.5,72.0,29.98,NE,53,0.0,0.0,92,0.00,CLR,,0.00,WeatherDisplay:10.37,2013-05-24 13:16:00,
2013-05-24 08:21:00,74.6,72.1,29.98,NE,53,0.0,0.0,92,0.00,CLR,,0.00,WeatherDisplay:10.37,2013-05-24 13:21:00,
2013-05-24 08:26:00,74.7,72.2,29.99,NE,53,0.0,0.0,92,0.00,CLR,,0.00,WeatherDisplay:10.37,2013-05-24 13:26:00,
2013-05-24 08:31:00,74.8,72.0,29.99,NE,53,0.0,0.0,91,0.00,CLR,,0.00,WeatherDisplay:10.37,2013-05-24 13:31:00,
2013-05-24 08:36:00,74.9,72.4,29.99,NE,53,0.0,0.0,92,0.00,CLR,,0.00,WeatherDisplay:10.37,2013-05-24 13:36:00,
2013-05-24 08:41:00,75.0,72.2,30.00,NE,53,0.0,0.0,91,0.00,CLR,,0.00,WeatherDisplay:10.37,2013-05-24 13:41:00,
2013-05-24 08:46:00,75.1,72.3,30.00,NE,53,0.0,0.0,91,0.00,CLR,,0.00,WeatherDisplay:10.37,2013-05-24 13:46:00,
2013-05-24 08:51:00,75.2,72.4,30.00,NE,53,0.0,0.0,91,0.00,CLR,,0.00,WeatherDisplay:10.37,2013-05-24 13:51:00,
2013-05-24 08:56:00,75.3,72.2,30.00,NE,53,0.0,0.0,90,0.00,CLR,,0.00,WeatherDisplay:10.37,2013-05-24 13:56:00,
2013-05-24 09:01:00,75.4,72.3,30.00,NE,53,0.0,0.0,90,0.00,CLR,,0.00,WeatherDisplay:10.37,2013-05-24 14:01:00,
2013-05-24 09:06:00,75.5,72.4,30.01,NE,53,0.0,0.0,90,0.00,CLR,,0.00,WeatherDisplay:10.37,2013-05-24 14:06:00,
2013-05-24 09:11:00,75.6,72.5,30.01,NE,53,0.0,0.0,90,0.00,CLR,,0.00,WeatherDisplay:10.37,2013-05-24 14:11:00,
2013-05-24 09:16:00,75.8,72.7,30.01,NE,53,0.0,1.2,90,0.00,CLR,,0.00,WeatherDisplay:10.37,2013-05-24 14:16:00,
2013-05-24 09:21:00,75.9,72.4,30.01,NE,53,0.0,0.0,89,0.00,CLR,,0.00,WeatherDisplay:10.37,2013-05-24 14:21:00,
2013-05-24 09:26:00,76.0,72.5,30.02,NE,53,0.0,0.0,89,0.00,CLR,,0.00,WeatherDisplay:10.37,2013-05-24 14:26:00,
2013-05-24 09:31:00,76.1,72.6,30.02,NE,53,0.0,0.0,89,0.00,CLR,,0.00,WeatherDisplay:10.37,2013-05-24 14:31:00,
2013-05-24 09:36:00,76.2,72.4,30.02,NE,53,0.0,0.0,88,0.00,CLR,,0.00,WeatherDisplay:10.37,2013-05-24 14:36:00,
2013-05-24 09:41:00,76.3,72.5,30.02,NE,53,0.0,0.0,88,0.00,CLR,,0.00,WeatherDisplay:10.37,2013-05-24 14:41:00,
2013-05-24 09:46:00,76.4,72.6,30.02,NE,53,0.0,0.0,88,0.00,CLR,,0.00,WeatherDisplay:10.37,2013-05-24 14:46:00,
2013-05-24 09:51:00,76.5,72.7,30.02,NE,53,0.0,0.0,88,0.00,CLR,,0.00,WeatherDisplay:10.37,2013-05-24 14:51:00,
2013-05-24 09:56:00,76.6,72.8,30.02,NE,53,0.0,0.0,88,0.00,CLR,,0.00,WeatherDisplay:10.37,2013-05-24 14:56:00,
2013-05-24 10:01:00,76.6,72.4,30.02,NE,53,0.0,0.0,87,0.00,CLR,,0.00,WeatherDisplay:10.37,2013-05-24 15:01:00,
2013-05-24 10:06:00,76.7,72.5,30.02,ENE,67,0.0,0.0,87,0.00,CLR,,0.00,WeatherDisplay:10.37,2013-05-24 15:06:00,
2013-05-24 10:11:00,76.8,72.6,30.02,NE,43,0.0,0.0,87,0.00,CLR,,0.00,WeatherDisplay:10.37,2013-05-24 15:11:00,
2013-05-24 10:16:00,77.0,72.8,30.02,NE,44,0.0,0.0,87,0.00,CLR,,0.00,WeatherDisplay:10.37,2013-05-24 15:16:00,
2013-05-24 10:21:00,77.1,72.6,30.02,NE,44,0.0,0.0,86,0.00,CLR,,0.00,WeatherDisplay:10.37,2013-05-24 15:21:00,
2013-05-24 10:26:00,77.2,72.7,30.02,NE,36,0.1,1.0,86,0.00,CLR,,0.00,WeatherDisplay:10.37,2013-05-24 15:26:00,
2013-05-24 10:31:00,77.3,72.8,30.02,NE,36,0.0,0.0,86,0.00,CLR,,0.00,WeatherDisplay:10.37,2013-05-24 15:31:00,
2013-05-24 10:36:00,77.4,72.9,30.03,NE,36,0.0,0.0,86,0.00,CLR,,0.00,WeatherDisplay:10.37,2013-05-24 15:36:00,
2013-05-24 10:41:00,77.5,73.3,30.03,NE,36,0.0,0.0,87,0.01,RA,,0.01,WeatherDisplay:10.37,2013-05-24 15:41:00,
2013-05-24 10:46:00,77.6,73.4,30.03,NE,36,0.0,0.0,87,0.01,RA,,0.01,WeatherDisplay:10.37,2013-05-24 15:46:00,
2013-05-24 10:51:00,77.6,73.8,30.03,NE,36,0.0,0.0,88,0.01,CLR,,0.01,WeatherDisplay:10.37,2013-05-24 15:51:00,
2013-05-24 10:56:00,77.5,73.7,30.03,NE,36,0.0,0.0,88,0.01,CLR,,0.01,WeatherDisplay:10.37,2013-05-24 15:56:00,
2013-05-24 11:01:00,77.3,73.5,30.03,NE,36,0.0,0.0,88,0.01,CLR,,0.01,WeatherDisplay:10.37,2013-05-24 16:01:00,
2013-05-24 11:06:00,77.2,73.4,30.03,NE,36,0.0,0.0,88,0.01,CLR,,0.01,WeatherDisplay:10.37,2013-05-24 16:06:00,
2013-05-24 11:11:00,77.1,73.3,30.03,NE,36,0.0,0.0,88,0.01,CLR,,0.01,WeatherDisplay:10.37,2013-05-24 16:11:00,
2013-05-24 11:16:00,76.9,73.1,30.03,NE,36,0.0,0.0,88,0.01,CLR,,0.01,WeatherDisplay:10.37,2013-05-24 16:16:00,
2013-05-24 11:21:00,76.8,73.3,30.03,NE,36,0.0,0.0,89,0.01,CLR,,0.01,WeatherDisplay:10.37,2013-05-24 16:21:00,
2013-05-24 11:26:00,76.8,73.3,30.02,NE,36,0.1,1.0,89,0.01,CLR,,0.01,WeatherDisplay:10.37,2013-05-24 16:26:00,
2013-05-24 11:31:00,76.7,73.2,30.02,NE,36,0.0,0.0,89,0.01,CLR,,0.01,WeatherDisplay:10.37,2013-05-24 16:31:00,
2013-05-24 11:36:00,76.8,73.6,30.02,NE,36,0.0,0.0,90,0.01,CLR,,0.01,WeatherDisplay:10.37,2013-05-24 16:36:00,
2013-05-24 11:41:00,76.7,73.5,30.02,NE,47,0.0,0.0,90,0.00,CLR,,0.01,WeatherDisplay:10.37,2013-05-24 16:41:00,
2013-05-24 11:46:00,76.8,73.3,30.02,SSE,148,0.0,4.6,89,0.00,CLR,,0.01,WeatherDisplay:10.37,2013-05-24 16:46:00,
2013-05-24 11:51:00,76.8,73.3,30.02,ENE,57,0.0,0.0,89,0.00,CLR,,0.01,WeatherDisplay:10.37,2013-05-24 16:51:00,
2013-05-24 11:56:00,76.9,73.4,30.01,NNE,24,0.0,0.0,89,0.00,CLR,,0.01,WeatherDisplay:10.37,2013-05-24 16:56:00,
2013-05-24 12:01:00,77.1,73.6,30.01,North,11,0.0,0.0,89,0.00,CLR,,0.01,WeatherDisplay:10.37,2013-05-24 17:01:00,
2013-05-24 12:06:00,77.2,73.7,30.01,NNE,12,0.0,0.0,89,0.00,CLR,,0.01,WeatherDisplay:10.37,2013-05-24 17:06:00,
2013-05-24 12:11:00,77.4,73.6,30.01,NNE,13,0.0,0.0,88,0.00,CLR,,0.01,WeatherDisplay:10.37,2013-05-24 17:11:00,
2013-05-24 12:16:00,77.5,73.7,30.00,ENE,69,0.0,0.0,88,0.00,CLR,,0.01,WeatherDisplay:10.37,2013-05-24 17:16:00,
2013-05-24 12:21:00,77.6,73.4,30.01,ENE,61,1.1,3.5,87,0.00,CLR,,0.01,WeatherDisplay:10.37,2013-05-24 17:21:00,
2013-05-24 12:26:00,77.7,73.2,30.01,NE,38,0.1,2.0,86,0.00,CLR,,0.01,WeatherDisplay:10.37,2013-05-24 17:26:00,
2013-05-24 12:31:00,77.8,73.3,30.00,East,81,0.0,0.0,86,0.00,CLR,,0.01,WeatherDisplay:10.37,2013-05-24 17:31:00,
2013-05-24 12:36:00,78.0,73.5,30.00,ENE,73,0.0,0.0,86,0.00,CLR,,0.01,WeatherDisplay:10.37,2013-05-24 17:36:00,
2013-05-24 12:41:00,78.0,73.1,30.00,ENE,73,0.0,0.0,85,0.00,CLR,,0.01,WeatherDisplay:10.37,2013-05-24 17:41:00,
2013-05-24 12:46:00,78.0,72.8,30.00,East,83,0.0,1.2,84,0.00,CLR,,0.01,WeatherDisplay:10.37,2013-05-24 17:46:00,
2013-05-24 12:51:00,78.0,72.8,30.00,NE,51,0.7,2.3,84,0.00,CLR,,0.01,WeatherDisplay:10.37,2013-05-24 17:51:00,
2013-05-24 12:56:00,78.1,72.9,30.00,NE,51,0.0,0.0,84,0.00,CLR,,0.01,WeatherDisplay:10.37,2013-05-24 17:56:00,
2013-05-24 13:01:00,78.2,73.0,30.00,NNE,21,0.3,1.2,84,0.00,CLR,,0.01,WeatherDisplay:10.37,2013-05-24 18:01:00,
2013-05-24 13:06:00,78.2,73.0,30.00,NE,38,0.0,1.2,84,0.00,CLR,,0.01,WeatherDisplay:10.37,2013-05-24 18:06:00,
2013-05-24 13:11:00,78.2,73.0,29.99,NE,46,0.0,2.3,84,0.00,CLR,,0.01,WeatherDisplay:10.37,2013-05-24 18:11:00,
2013-05-24 13:16:00,78.1,72.9,30.00,NNE,29,0.2,1.2,84,0.00,CLR,,0.01,WeatherDisplay:10.37,2013-05-24 18:16:00,
2013-05-24 13:21:00,77.8,71.5,30.01,WNW,295,2.9,5.8,81,0.00,CLR,,0.01,WeatherDisplay:10.37,2013-05-24 18:21:00,
2013-05-24 13:26:00,75.9,67.4,30.01,WSW,250,1.7,4.0,75,0.00,CLR,,0.01,WeatherDisplay:10.37,2013-05-24 18:26:00,
2013-05-24 13:31:00,74.8,67.1,30.01,NNW,330,1.7,2.3,77,0.00,CLR,,0.01,WeatherDisplay:10.37,2013-05-24 18:31:00,
2013-05-24 13:36:00,73.9,67.3,30.01,WNW,284,0.5,3.5,80,0.01,RA,,0.02,WeatherDisplay:10.37,2013-05-24 18:36:00,
2013-05-24 13:41:00,73.1,66.9,30.01,WSW,248,3.0,3.5,81,0.02,RA,,0.03,WeatherDisplay:10.37,2013-05-24 18:41:00,
2013-05-24 13:46:00,71.7,66.6,30.00,WNW,294,1.4,3.5,84,0.02,RA,,0.03,WeatherDisplay:10.37,2013-05-24 18:46:00,
2013-05-24 13:51:00,71.0,66.6,30.01,WSW,243,0.7,3.5,86,0.03,RA,,0.04,WeatherDisplay:10.37,2013-05-24 18:51:00,
2013-05-24 13:56:00,70.5,66.4,30.00,WNW,302,2.3,4.0,87,0.22,RA,,0.25,WeatherDisplay:10.37,2013-05-24 18:56:00,
2013-05-24 14:01:00,69.8,66.4,29.99,NW,320,1.0,4.6,89,0.41,RA,,0.43,WeatherDisplay:10.37,2013-05-24 19:01:00,
2013-05-24 14:06:00,69.3,65.9,29.99,NW,309,0.0,0.0,89,0.52,RA,,0.53,WeatherDisplay:10.37,2013-05-24 19:06:00,
2013-05-24 14:11:00,69.0,66.3,30.01,NW,309,0.0,0.0,91,0.65,RA,,0.67,WeatherDisplay:10.37,2013-05-24 19:11:00,
2013-05-24 14:16:00,68.9,66.2,29.99,SW,230,0.0,1.2,91,0.85,RA,,0.87,WeatherDisplay:10.37,2013-05-24 19:16:00,
2013-05-24 14:21:00,68.8,66.4,30.00,NW,304,0.0,0.0,92,0.88,RA,,0.89,WeatherDisplay:10.37,2013-05-24 19:21:00,
2013-05-24 14:26:00,68.8,66.4,30.00,NW,304,0.0,0.0,92,0.92,RA,,0.93,WeatherDisplay:10.37,2013-05-24 19:26:00,
2013-05-24 14:31:00,68.8,66.7,30.01,NW,304,0.0,0.0,93,0.98,RA,,0.99,WeatherDisplay:10.37,2013-05-24 19:31:00,
2013-05-24 14:36:00,68.9,66.8,30.01,NW,304,0.0,0.0,93,1.04,RA,,1.06,WeatherDisplay:10.37,2013-05-24 19:36:00,
2013-05-24 14:41:00,68.8,66.7,30.01,NW,304,0.0,0.0,93,1.07,RA,,1.10,WeatherDisplay:10.37,2013-05-24 19:41:00,
2013-05-24 14:46:00,68.8,66.7,30.00,NW,304,0.0,0.0,93,1.14,RA,,1.18,WeatherDisplay:10.37,2013-05-24 19:46:00,
2013-05-24 14:51:00,68.8,67.0,29.98,NW,304,0.0,0.0,94,1.17,RA,,1.21,WeatherDisplay:10.37,2013-05-24 19:51:00,
2013-05-24 14:56:00,68.8,67.0,29.99,NW,304,0.0,1.0,94,1.02,RA,,1.25,WeatherDisplay:10.37,2013-05-24 19:56:00,
2013-05-24 15:01:00,68.8,67.0,29.99,NW,304,0.0,0.0,94,0.90,RA,,1.32,WeatherDisplay:10.37,2013-05-24 20:01:00,
2013-05-24 15:06:00,68.8,67.0,29.99,NW,304,0.0,0.0,94,0.82,RA,,1.35,WeatherDisplay:10.37,2013-05-24 20:06:00,
2013-05-24 15:11:00,68.8,67.0,29.99,NW,304,0.0,0.0,94,0.72,RA,,1.36,WeatherDisplay:10.37,2013-05-24 20:11:00,
2013-05-24 15:16:00,68.8,67.0,29.98,NE,49,0.0,0.0,94,0.50,RA,,1.36,WeatherDisplay:10.37,2013-05-24 20:16:00,
2013-05-24 15:21:00,68.8,67.0,29.99,ENE,78,0.0,2.3,94,0.51,RA,,1.40,WeatherDisplay:10.37,2013-05-24 20:21:00,
2013-05-24 15:26:00,68.9,67.1,29.98,NE,55,0.0,3.5,94,0.50,RA,,1.44,WeatherDisplay:10.37,2013-05-24 20:26:00,
2013-05-24 15:31:00,69.0,67.5,29.97,NE,38,0.0,0.0,95,0.47,RA,,1.46,WeatherDisplay:10.37,2013-05-24 20:31:00,
2013-05-24 15:36:00,69.2,67.7,29.98,NE,38,0.0,1.2,95,0.41,RA,,1.47,WeatherDisplay:10.37,2013-05-24 20:36:00,
2013-05-24 15:41:00,69.3,67.8,29.98,NE,38,0.0,0.0,95,0.38,RA,,1.48,WeatherDisplay:10.37,2013-05-24 20:41:00,
2013-05-24 15:46:00,69.4,67.9,29.97,NE,38,0.0,0.0,95,0.32,RA,,1.49,WeatherDisplay:10.37,2013-05-24 20:46:00,
2013-05-24 15:51:00,69.5,68.0,29.97,NE,38,0.1,1.2,95,0.28,RA,,1.49,WeatherDisplay:10.37,2013-05-24 20:51:00,
2013-05-24 15:56:00,69.5,68.0,29.96,NE,38,0.0,0.0,95,0.24,,,1.49,WeatherDisplay:10.37,2013-05-24 20:56:00,
2013-05-24 16:01:00,69.5,68.0,29.96,NE,38,0.0,0.0,95,0.17,CLR,,1.49,WeatherDisplay:10.37,2013-05-24 21:01:00,
2013-05-24 16:06:00,69.5,68.0,29.97,NE,38,0.0,0.0,95,0.14,CLR,,1.49,WeatherDisplay:10.37,2013-05-24 21:06:00,
2013-05-24 16:11:00,69.7,68.2,29.96,NE,38,0.0,0.0,95,0.13,CLR,,1.49,WeatherDisplay:10.37,2013-05-24 21:11:00,
2013-05-24 16:16:00,69.8,68.3,29.96,NE,38,0.0,0.0,95,0.13,CLR,,1.49,WeatherDisplay:10.37,2013-05-24 21:16:00,
2013-05-24 16:21:00,69.9,68.4,29.96,NE,38,0.0,0.0,95,0.10,RA,,1.50,WeatherDisplay:10.37,2013-05-24 21:21:00,
2013-05-24 16:26:00,70.0,68.5,29.96,NE,38,0.3,1.2,95,0.07,RA,,1.50,WeatherDisplay:10.37,2013-05-24 21:26:00,
2013-05-24 16:31:00,70.1,68.6,29.97,NE,38,0.0,0.0,95,0.04,RA,,1.50,WeatherDisplay:10.37,2013-05-24 21:31:00,
2013-05-24 16:36:00,70.2,68.7,29.96,NE,38,0.0,1.2,95,0.04,RA,,1.51,WeatherDisplay:10.37,2013-05-24 21:36:00,
2013-05-24 16:41:00,70.2,68.7,29.96,NE,38,0.1,1.2,95,0.04,RA,,1.52,WeatherDisplay:10.37,2013-05-24 21:41:00,
2013-05-24 16:46:00,70.0,68.5,29.96,East,85,0.0,0.0,95,0.04,RA,,1.53,WeatherDisplay:10.37,2013-05-24 21:46:00,
2013-05-24 16:51:00,70.0,68.5,29.96,ENE,78,0.1,1.2,95,0.11,RA,,1.61,WeatherDisplay:10.37,2013-05-24 21:51:00,
2013-05-24 16:56:00,69.9,68.4,29.96,ENE,57,0.0,1.2,95,0.12,RA,,1.61,WeatherDisplay:10.37,2013-05-24 21:56:00,
2013-05-24 17:01:00,69.9,68.4,29.96,ENE,57,0.0,0.0,95,0.12,RA,,1.61,WeatherDisplay:10.37,2013-05-24 22:01:00,
2013-05-24 17:06:00,69.9,68.4,29.97,NE,53,0.5,2.3,95,0.21,RA,,1.71,WeatherDisplay:10.37,2013-05-24 22:06:00,
2013-05-24 17:11:00,69.8,68.3,29.97,NE,34,0.0,0.0,95,0.23,RA,,1.72,WeatherDisplay:10.37,2013-05-24 22:11:00,
2013-05-24 17:16:00,69.8,68.3,29.97,East,80,0.0,1.2,95,0.24,RA,,1.73,WeatherDisplay:10.37,2013-05-24 22:16:00,
2013-05-24 17:21:00,69.8,68.3,29.97,East,80,0.0,0.0,95,0.23,RA,,1.73,WeatherDisplay:10.37,2013-05-24 22:21:00,
2013-05-24 17:26:00,69.8,68.6,29.97,East,80,0.0,0.0,96,0.23,CLR,,1.73,WeatherDisplay:10.37,2013-05-24 22:26:00,
2013-05-24 17:31:00,69.9,68.4,29.98,NE,51,0.1,1.0,95,0.24,RA,,1.74,WeatherDisplay:10.37,2013-05-24 22:31:00,
2013-05-24 17:36:00,69.9,68.4,29.98,East,96,0.0,1.2,95,0.23,RA,,1.74,WeatherDisplay:10.37,2013-05-24 22:36:00,
2013-05-24 17:41:00,69.9,68.4,29.98,NE,36,0.1,3.5,95,0.22,CLR,,1.74,WeatherDisplay:10.37,2013-05-24 22:41:00,
2013-05-24 17:46:00,69.9,68.7,29.97,North,9,0.0,1.2,96,0.21,CLR,,1.74,WeatherDisplay:10.37,2013-05-24 22:46:00,
2013-05-24 17:51:00,69.9,68.7,29.97,NNE,24,0.7,3.5,96,0.14,CLR,,1.74,WeatherDisplay:10.37,2013-05-24 22:51:00,
2013-05-24 17:56:00,69.9,68.7,29.97,ENE,78,0.8,3.5,96,0.13,CLR,,1.74,WeatherDisplay:10.37,2013-05-24 22:56:00,
2013-05-24 18:01:00,69.9,68.7,29.97,ENE,78,0.0,0.0,96,0.13,CLR,,1.74,WeatherDisplay:10.37,2013-05-24 23:01:00,
2013-05-24 18:06:00,69.9,68.7,29.98,ENE,78,0.0,0.0,96,0.04,CLR,,1.74,WeatherDisplay:10.37,2013-05-24 23:06:00,
2013-05-24 18:11:00,69.9,68.7,29.98,ENE,78,0.0,0.0,96,0.02,CLR,,1.74,WeatherDisplay:10.37,2013-05-24 23:11:00,
2013-05-24 18:16:00,69.9,68.7,29.97,ENE,78,0.0,0.0,96,0.01,CLR,,1.74,WeatherDisplay:10.37,2013-05-24 23:16:00,
2013-05-24 18:21:00,69.8,68.6,29.97,ENE,78,0.0,0.0,96,0.01,CLR,,1.74,WeatherDisplay:10.37,2013-05-24 23:21:00,
2013-05-24 18:26:00,69.7,68.5,29.97,ENE,78,0.0,0.0,96,0.01,CLR,,1.74,WeatherDisplay:10.37,2013-05-24 23:26:00,
2013-05-24 18:31:00,69.8,68.6,29.97,ENE,78,0.0,0.0,96,0.00,CLR,,1.74,WeatherDisplay:10.37,2013-05-24 23:31:00,
2013-05-24 18:36:00,69.7,68.5,29.97,ENE,78,0.0,0.0,96,0.00,CLR,,1.74,WeatherDisplay:10.37,2013-05-24 23:36:00,
2013-05-24 18:41:00,69.7,68.5,29.97,ENE,58,0.0,0.0,96,0.00,CLR,,1.74,WeatherDisplay:10.37,2013-05-24 23:41:00,
2013-05-24 18:46:00,69.6,68.4,29.97,ENE,63,0.0,1.0,96,0.00,CLR,,1.74,WeatherDisplay:10.37,2013-05-24 23:46:00,
2013-05-24 18:51:00,69.6,68.4,29.97,East,87,0.6,2.3,96,0.00,CLR,,1.74,WeatherDisplay:10.37,2013-05-24 23:51:00,
2013-05-24 18:56:00,69.5,68.3,29.97,East,92,0.3,2.3,96,0.00,CLR,,1.74,WeatherDisplay:10.37,2013-05-24 23:56:00,
2013-05-24 19:01:00,69.5,68.3,29.97,NE,40,0.0,2.3,96,0.00,CLR,,1.74,WeatherDisplay:10.37,2013-05-25 00:01:00,
2013-05-24 19:06:00,69.4,68.2,29.97,ENE,74,0.0,1.2,96,0.00,CLR,,1.74,WeatherDisplay:10.37,2013-05-25 00:06:00,
2013-05-24 19:11:00,69.5,68.3,29.98,ENE,58,0.0,0.0,96,0.00,CLR,,1.74,WeatherDisplay:10.37,2013-05-25 00:11:00,
2013-05-24 19:16:00,69.5,68.3,29.98,ENE,58,0.0,0.0,96,0.00,CLR,,1.74,WeatherDisplay:10.37,2013-05-25 00:16:00,
2013-05-24 19:21:00,69.5,68.3,29.98,NE,54,0.0,0.0,96,0.00,CLR,,1.74,WeatherDisplay:10.37,2013-05-25 00:21:00,
2013-05-24 19:26:00,69.5,68.3,29.98,NE,55,0.0,0.0,96,0.00,CLR,,1.74,WeatherDisplay:10.37,2013-05-25 00:26:00,
2013-05-24 19:31:00,69.5,68.3,29.98,NE,55,0.0,0.0,96,0.00,CLR,,1.74,WeatherDisplay:10.37,2013-05-25 00:31:00,
2013-05-24 19:36:00,69.5,68.3,29.98,NE,55,0.0,0.0,96,0.00,CLR,,1.74,WeatherDisplay:10.37,2013-05-25 00:36:00,
2013-05-24 19:41:00,69.6,68.4,29.97,NE,55,0.0,1.2,96,0.00,CLR,,1.74,WeatherDisplay:10.37,2013-05-25 00:41:00,
2013-05-24 19:46:00,69.6,68.4,29.97,NE,55,0.0,0.0,96,0.01,RA,,1.75,WeatherDisplay:10.37,2013-05-25 00:46:00,
2013-05-24 19:51:00,69.6,68.4,29.97,NE,56,0.6,1.2,96,0.01,RA,,1.75,WeatherDisplay:10.37,2013-05-25 00:51:00,
2013-05-24 19:56:00,69.6,68.4,29.96,NE,56,0.0,0.0,96,0.01,,,1.75,WeatherDisplay:10.37,2013-05-25 00:56:00,
2013-05-24 20:01:00,69.6,68.4,29.96,NE,45,0.0,0.0,96,0.01,CLR,,1.75,WeatherDisplay:10.37,2013-05-25 01:01:00,
2013-05-24 20:06:00,69.5,68.3,29.96,NE,45,0.0,0.0,96,0.01,CLR,,1.75,WeatherDisplay:10.37,2013-05-25 01:06:00,
2013-05-24 20:11:00,69.5,68.3,29.95,NE,45,0.0,0.0,96,0.01,CLR,,1.75,WeatherDisplay:10.37,2013-05-25 01:11:00,
2013-05-24 20:16:00,69.4,68.2,29.96,NE,45,0.0,0.0,96,0.01,CLR,,1.75,WeatherDisplay:10.37,2013-05-25 01:16:00,
2013-05-24 20:21:00,69.4,68.2,29.97,NE,45,0.0,0.0,96,0.01,CLR,,1.75,WeatherDisplay:10.37,2013-05-25 01:21:00,
2013-05-24 20:26:00,69.4,68.2,29.97,NE,45,0.0,0.0,96,0.01,CLR,,1.75,WeatherDisplay:10.37,2013-05-25 01:26:00,
2013-05-24 20:31:00,69.3,68.1,29.98,NE,45,0.0,0.0,96,0.01,CLR,,1.75,WeatherDisplay:10.37,2013-05-25 01:31:00,
2013-05-24 20:36:00,69.3,68.1,29.98,NE,45,0.0,0.0,96,0.01,CLR,,1.75,WeatherDisplay:10.37,2013-05-25 01:36:00,
2013-05-24 20:41:00,69.3,68.1,29.98,NE,45,0.0,0.0,96,0.01,CLR,,1.75,WeatherDisplay:10.37,2013-05-25 01:41:00,
2013-05-24 20:46:00,69.3,68.1,29.98,NE,45,0.0,0.0,96,0.00,CLR,,1.75,WeatherDisplay:10.37,2013-05-25 01:46:00,
2013-05-24 20:51:00,69.2,68.0,29.98,NE,45,0.0,0.0,96,0.00,CLR,,1.75,WeatherDisplay:10.37,2013-05-25 01:51:00,
2013-05-24 20:56:00,69.2,68.0,29.98,NE,45,0.0,0.0,96,0.00,CLR,,1.75,WeatherDisplay:10.37,2013-05-25 01:56:00,
2013-05-24 21:01:00,69.2,68.0,29.98,NE,45,0.0,0.0,96,0.00,CLR,,1.75,WeatherDisplay:10.37,2013-05-25 02:01:00,
2013-05-24 21:06:00,69.2,68.0,29.98,NE,45,0.0,0.0,96,0.00,CLR,,1.75,WeatherDisplay:10.37,2013-05-25 02:06:00,
2013-05-24 21:11:00,69.2,68.0,29.98,NE,45,0.0,0.0,96,0.00,CLR,,1.75,WeatherDisplay:10.37,2013-05-25 02:11:00,
2013-05-24 21:16:00,69.2,68.0,29.99,NE,45,0.0,0.0,96,0.00,CLR,,1.75,WeatherDisplay:10.37,2013-05-25 02:16:00,
2013-05-24 21:21:00,69.2,68.0,29.98,NE,45,0.0,0.0,96,0.00,CLR,,1.75,WeatherDisplay:10.37,2013-05-25 02:21:00,
2013-05-24 21:26:00,69.2,68.0,29.98,NE,45,0.0,0.0,96,0.00,CLR,,1.75,WeatherDisplay:10.37,2013-05-25 02:26:00,
2013-05-24 21:31:00,69.2,68.0,29.99,NE,45,0.0,0.0,96,0.00,CLR,,1.75,WeatherDisplay:10.37,2013-05-25 02:31:00,
2013-05-24 21:36:00,69.2,68.0,29.99,NE,45,0.0,0.0,96,0.00,CLR,,1.75,WeatherDisplay:10.37,2013-05-25 02:36:00,
2013-05-24 21:41:00,69.2,68.0,29.99,NE,45,0.0,0.0,96,0.00,CLR,,1.75,WeatherDisplay:10.37,2013-05-25 02:41:00,
2013-05-24 21:46:00,69.3,68.1,30.00,NE,45,0.0,0.0,96,0.00,CLR,,1.75,WeatherDisplay:10.37,2013-05-25 02:46:00,
2013-05-24 21:51:00,69.3,68.1,30.00,NE,45,0.0,0.0,96,0.00,CLR,,1.75,WeatherDisplay:10.37,2013-05-25 02:51:00,
2013-05-24 21:56:00,69.3,68.1,30.01,NE,45,0.0,0.0,96,0.00,CLR,,1.75,WeatherDisplay:10.37,2013-05-25 02:56:00,
2013-05-24 22:01:00,69.3,68.1,30.01,NE,45,0.0,0.0,96,0.00,CLR,,1.75,WeatherDisplay:10.37,2013-05-25 03:01:00,
2013-05-24 22:06:00,69.3,68.1,30.01,NE,45,0.0,0.0,96,0.00,CLR,,1.75,WeatherDisplay:10.37,2013-05-25 03:06:00,
2013-05-24 22:11:00,69.4,68.2,30.01,NE,45,0.0,0.0,96,0.00,CLR,,1.75,WeatherDisplay:10.37,2013-05-25 03:11:00,
2013-05-24 22:16:00,69.4,68.2,30.02,NE,45,0.0,0.0,96,0.00,CLR,,1.75,WeatherDisplay:10.37,2013-05-25 03:16:00,
2013-05-24 22:21:00,69.5,68.3,30.02,NE,45,0.0,0.0,96,0.00,CLR,,1.75,WeatherDisplay:10.37,2013-05-25 03:21:00,
2013-05-24 22:26:00,69.5,68.3,30.02,NE,45,0.0,0.0,96,0.00,CLR,,1.75,WeatherDisplay:10.37,2013-05-25 03:26:00,
2013-05-24 22:31:00,69.5,68.3,30.02,NE,45,0.0,0.0,96,0.00,CLR,,1.75,WeatherDisplay:10.37,2013-05-25 03:31:00,
2013-05-24 22:36:00,69.6,68.4,30.02,NE,45,0.0,0.0,96,0.00,CLR,,1.75,WeatherDisplay:10.37,2013-05-25 03:36:00,
2013-05-24 22:41:00,69.6,68.4,30.03,NE,45,0.0,0.0,96,0.00,CLR,,1.75,WeatherDisplay:10.37,2013-05-25 03:41:00,
2013-05-24 22:46:00,69.6,68.4,30.03,NE,45,0.0,0.0,96,0.00,CLR,,1.75,WeatherDisplay:10.37,2013-05-25 03:46:00,
2013-05-24 22:51:00,69.6,68.4,30.03,NE,45,0.0,0.0,96,0.00,CLR,,1.75,WeatherDisplay:10.37,2013-05-25 03:51:00,
2013-05-24 22:56:00,69.5,68.3,30.03,NE,48,0.0,0.0,96,0.00,CLR,,1.75,WeatherDisplay:10.37,2013-05-25 03:56:00,
2013-05-24 23:01:00,69.5,68.3,30.04,ENE,57,0.0,0.0,96,0.00,CLR,,1.75,WeatherDisplay:10.37,2013-05-25 04:01:00,
2013-05-24 23:06:00,69.5,68.3,30.04,ENE,57,0.0,1.2,96,0.00,CLR,,1.75,WeatherDisplay:10.37,2013-05-25 04:06:00,
2013-05-24 23:11:00,69.4,68.2,30.03,ENE,57,0.0,0.0,96,0.00,CLR,,1.75,WeatherDisplay:10.37,2013-05-25 04:11:00,
2013-05-24 23:16:00,69.4,68.2,30.03,ENE,61,0.0,0.0,96,0.00,CLR,,1.75,WeatherDisplay:10.37,2013-05-25 04:16:00,
2013-05-24 23:21:00,69.3,68.1,30.03,ENE,61,0.0,0.0,96,0.00,CLR,,1.75,WeatherDisplay:10.37,2013-05-25 04:21:00,
2013-05-24 23:26:00,69.2,68.0,30.04,ENE,61,0.0,0.0,96,0.00,CLR,,1.75,WeatherDisplay:10.37,2013-05-25 04:26:00,
2013-05-24 23:31:00,69.2,68.0,30.04,ENE,61,0.0,0.0,96,0.00,CLR,,1.75,WeatherDisplay:10.37,2013-05-25 04:31:00,
2013-05-24 23:36:00,69.1,67.9,30.04,ENE,61,0.0,0.0,96,0.00,CLR,,1.75,WeatherDisplay:10.37,2013-05-25 04:36:00,
2013-05-24 23:41:00,69.0,67.8,30.04,ENE,61,0.0,0.0,96,0.00,CLR,,1.75,WeatherDisplay:10.37,2013-05-25 04:41:00,
2013-05-24 23:46:00,69.0,67.8,30.04,ENE,61,0.1,1.2,96,0.00,CLR,,1.75,WeatherDisplay:10.37,2013-05-25 04:46:00,
2013-05-24 23:51:00,69.0,67.8,30.04,ENE,61,0.0,0.0,96,0.00,CLR,,1.75,WeatherDisplay:10.37,2013-05-25 04:51:00,
2013-05-24 23:56:00,69.0,67.8,30.03,ENE,61,0.0,0.0,96,0.00,CLR,,1.75,WeatherDisplay:10.37,2013-05-25 04:56:00,